sensor_id;sensor_type;location;lat;lon;timestamp;P1;durP1;ratioP1;P2;durP2;ratioP2
55435;SDS011;41307;53.142;6.430;2023-08-08T00:00:35;3.97;;;0.98;;
55435;SDS011;41307;53.142;6.430;2023-08-08T00:03:01;2.13;;;0.80;;
55435;SDS011;41307;53.142;6.430;2023-08-08T00:05:27;2.00;;;0.80;;
55435;SDS011;41307;53.142;6.430;2023-08-08T00:07:52;1.45;;;0.90;;
55435;SDS011;41307;53.142;6.430;2023-08-08T00:10:18;1.98;;;0.85;;
55435;SDS011;41307;53.142;6.430;2023-08-08T00:12:44;1.33;;;0.90;;
55435;SDS011;41307;53.142;6.430;2023-08-08T00:15:09;2.30;;;0.90;;
55435;SDS011;41307;53.142;6.430;2023-08-08T00:17:35;1.80;;;1.00;;
55435;SDS011;41307;53.142;6.430;2023-08-08T00:20:01;1.77;;;0.93;;
55435;SDS011;41307;53.142;6.430;2023-08-08T00:22:27;3.70;;;1.13;;
55435;SDS011;41307;53.142;6.430;2023-08-08T00:24:54;1.27;;;0.75;;
55435;SDS011;41307;53.142;6.430;2023-08-08T00:27:20;3.03;;;1.00;;
55435;SDS011;41307;53.142;6.430;2023-08-08T00:29:45;2.65;;;1.08;;
55435;SDS011;41307;53.142;6.430;2023-08-08T00:32:11;1.83;;;1.00;;
55435;SDS011;41307;53.142;6.430;2023-08-08T00:34:37;1.88;;;0.60;;
55435;SDS011;41307;53.142;6.430;2023-08-08T00:37:03;1.52;;;0.90;;
55435;SDS011;41307;53.142;6.430;2023-08-08T00:39:29;2.30;;;0.90;;
55435;SDS011;41307;53.142;6.430;2023-08-08T00:41:54;3.33;;;1.00;;
55435;SDS011;41307;53.142;6.430;2023-08-08T00:44:20;2.85;;;0.88;;
55435;SDS011;41307;53.142;6.430;2023-08-08T00:46:46;2.25;;;0.90;;
55435;SDS011;41307;53.142;6.430;2023-08-08T00:49:11;1.98;;;0.88;;
55435;SDS011;41307;53.142;6.430;2023-08-08T00:51:37;1.73;;;1.00;;
55435;SDS011;41307;53.142;6.430;2023-08-08T00:54:03;1.65;;;0.75;;
55435;SDS011;41307;53.142;6.430;2023-08-08T00:56:30;1.63;;;0.70;;
55435;SDS011;41307;53.142;6.430;2023-08-08T00:58:56;2.47;;;0.90;;
55435;SDS011;41307;53.142;6.430;2023-08-08T01:01:22;2.53;;;1.15;;
55435;SDS011;41307;53.142;6.430;2023-08-08T01:03:48;3.03;;;1.00;;
55435;SDS011;41307;53.142;6.430;2023-08-08T01:09:04;2.22;;;1.00;;
55435;SDS011;41307;53.142;6.430;2023-08-08T01:11:34;2.08;;;1.17;;
55435;SDS011;41307;53.142;6.430;2023-08-08T01:14:01;3.47;;;1.60;;
55435;SDS011;41307;53.142;6.430;2023-08-08T01:16:28;1.73;;;1.00;;
55435;SDS011;41307;53.142;6.430;2023-08-08T01:18:55;1.50;;;0.95;;
55435;SDS011;41307;53.142;6.430;2023-08-08T01:21:22;2.45;;;1.17;;
55435;SDS011;41307;53.142;6.430;2023-08-08T01:23:53;2.25;;;1.10;;
55435;SDS011;41307;53.142;6.430;2023-08-08T01:26:27;1.65;;;1.10;;
55435;SDS011;41307;53.142;6.430;2023-08-08T01:28:53;2.05;;;1.17;;
55435;SDS011;41307;53.142;6.430;2023-08-08T01:31:20;2.30;;;1.00;;
55435;SDS011;41307;53.142;6.430;2023-08-08T01:33:46;3.03;;;1.30;;
55435;SDS011;41307;53.142;6.430;2023-08-08T01:36:13;4.80;;;1.15;;
55435;SDS011;41307;53.142;6.430;2023-08-08T01:38:47;3.78;;;1.30;;
55435;SDS011;41307;53.142;6.430;2023-08-08T01:41:14;3.78;;;1.30;;
55435;SDS011;41307;53.142;6.430;2023-08-08T01:43:41;2.05;;;1.15;;
55435;SDS011;41307;53.142;6.430;2023-08-08T01:46:07;2.38;;;1.30;;
55435;SDS011;41307;53.142;6.430;2023-08-08T01:48:34;2.78;;;1.17;;
55435;SDS011;41307;53.142;6.430;2023-08-08T01:51:00;2.92;;;1.00;;
55435;SDS011;41307;53.142;6.430;2023-08-08T01:53:26;1.90;;;1.20;;
55435;SDS011;41307;53.142;6.430;2023-08-08T01:55:52;2.05;;;1.17;;
55435;SDS011;41307;53.142;6.430;2023-08-08T01:58:18;2.20;;;1.15;;
55435;SDS011;41307;53.142;6.430;2023-08-08T02:00:43;2.13;;;1.15;;
55435;SDS011;41307;53.142;6.430;2023-08-08T02:03:11;2.25;;;1.20;;
55435;SDS011;41307;53.142;6.430;2023-08-08T02:05:37;2.35;;;1.10;;
55435;SDS011;41307;53.142;6.430;2023-08-08T02:08:03;2.60;;;1.25;;
55435;SDS011;41307;53.142;6.430;2023-08-08T02:10:29;2.28;;;1.00;;
55435;SDS011;41307;53.142;6.430;2023-08-08T02:12:55;2.00;;;1.27;;
55435;SDS011;41307;53.142;6.430;2023-08-08T02:15:20;2.38;;;0.90;;
55435;SDS011;41307;53.142;6.430;2023-08-08T02:17:49;4.72;;;1.20;;
55435;SDS011;41307;53.142;6.430;2023-08-08T02:20:15;2.70;;;1.42;;
55435;SDS011;41307;53.142;6.430;2023-08-08T02:22:41;4.72;;;1.63;;
55435;SDS011;41307;53.142;6.430;2023-08-08T02:25:06;2.47;;;1.55;;
55435;SDS011;41307;53.142;6.430;2023-08-08T02:27:32;2.55;;;1.55;;
55435;SDS011;41307;53.142;6.430;2023-08-08T02:29:58;2.45;;;1.52;;
55435;SDS011;41307;53.142;6.430;2023-08-08T02:32:24;3.10;;;1.48;;
55435;SDS011;41307;53.142;6.430;2023-08-08T02:34:49;5.15;;;1.38;;
55435;SDS011;41307;53.142;6.430;2023-08-08T02:37:15;2.70;;;1.20;;
55435;SDS011;41307;53.142;6.430;2023-08-08T02:39:44;2.47;;;1.00;;
55435;SDS011;41307;53.142;6.430;2023-08-08T02:42:10;2.40;;;1.25;;
55435;SDS011;41307;53.142;6.430;2023-08-08T02:44:36;2.85;;;1.35;;
55435;SDS011;41307;53.142;6.430;2023-08-08T02:47:01;2.20;;;1.30;;
55435;SDS011;41307;53.142;6.430;2023-08-08T02:49:27;1.30;;;0.98;;
55435;SDS011;41307;53.142;6.430;2023-08-08T02:51:53;1.60;;;0.98;;
55435;SDS011;41307;53.142;6.430;2023-08-08T02:54:19;3.80;;;1.35;;
55435;SDS011;41307;53.142;6.430;2023-08-08T02:56:45;1.73;;;1.10;;
55435;SDS011;41307;53.142;6.430;2023-08-08T02:59:10;1.50;;;1.00;;
55435;SDS011;41307;53.142;6.430;2023-08-08T03:01:37;2.67;;;1.35;;
55435;SDS011;41307;53.142;6.430;2023-08-08T03:04:04;2.00;;;0.90;;
55435;SDS011;41307;53.142;6.430;2023-08-08T03:06:30;3.13;;;1.42;;
55435;SDS011;41307;53.142;6.430;2023-08-08T03:08:56;3.45;;;1.20;;
55435;SDS011;41307;53.142;6.430;2023-08-08T03:11:22;2.25;;;1.35;;
55435;SDS011;41307;53.142;6.430;2023-08-08T03:13:48;2.28;;;1.30;;
55435;SDS011;41307;53.142;6.430;2023-08-08T03:16:13;2.25;;;1.08;;
55435;SDS011;41307;53.142;6.430;2023-08-08T03:18:39;2.13;;;1.10;;
55435;SDS011;41307;53.142;6.430;2023-08-08T03:21:05;1.45;;;0.80;;
55435;SDS011;41307;53.142;6.430;2023-08-08T03:23:31;2.40;;;1.20;;
55435;SDS011;41307;53.142;6.430;2023-08-08T03:25:57;2.28;;;0.90;;
55435;SDS011;41307;53.142;6.430;2023-08-08T03:28:22;1.35;;;0.70;;
55435;SDS011;41307;53.142;6.430;2023-08-08T03:30:48;3.90;;;0.80;;
55435;SDS011;41307;53.142;6.430;2023-08-08T03:33:14;1.83;;;0.80;;
55435;SDS011;41307;53.142;6.430;2023-08-08T03:35:39;1.30;;;0.70;;
55435;SDS011;41307;53.142;6.430;2023-08-08T03:38:05;2.20;;;0.70;;
55435;SDS011;41307;53.142;6.430;2023-08-08T03:40:31;1.55;;;0.80;;
55435;SDS011;41307;53.142;6.430;2023-08-08T03:42:57;0.93;;;0.50;;
55435;SDS011;41307;53.142;6.430;2023-08-08T03:45:23;1.50;;;0.63;;
55435;SDS011;41307;53.142;6.430;2023-08-08T03:47:48;0.95;;;0.50;;
55435;SDS011;41307;53.142;6.430;2023-08-08T03:50:14;1.77;;;0.63;;
55435;SDS011;41307;53.142;6.430;2023-08-08T03:52:40;1.67;;;0.63;;
55435;SDS011;41307;53.142;6.430;2023-08-08T03:55:06;0.98;;;0.60;;
55435;SDS011;41307;53.142;6.430;2023-08-08T03:57:31;1.48;;;0.45;;
55435;SDS011;41307;53.142;6.430;2023-08-08T03:59:57;1.17;;;0.70;;
55435;SDS011;41307;53.142;6.430;2023-08-08T04:02:24;2.42;;;0.68;;
55435;SDS011;41307;53.142;6.430;2023-08-08T04:04:50;1.55;;;0.57;;
55435;SDS011;41307;53.142;6.430;2023-08-08T04:07:16;1.83;;;0.90;;
55435;SDS011;41307;53.142;6.430;2023-08-08T04:09:42;2.95;;;0.82;;
55435;SDS011;41307;53.142;6.430;2023-08-08T04:12:08;2.05;;;0.85;;
55435;SDS011;41307;53.142;6.430;2023-08-08T04:14:33;2.15;;;0.82;;
55435;SDS011;41307;53.142;6.430;2023-08-08T04:16:59;1.83;;;0.70;;
55435;SDS011;41307;53.142;6.430;2023-08-08T04:19:25;1.77;;;0.60;;
55435;SDS011;41307;53.142;6.430;2023-08-08T04:21:51;1.50;;;0.80;;
55435;SDS011;41307;53.142;6.430;2023-08-08T04:24:16;1.65;;;0.88;;
55435;SDS011;41307;53.142;6.430;2023-08-08T04:26:42;1.17;;;0.70;;
55435;SDS011;41307;53.142;6.430;2023-08-08T04:29:08;1.67;;;0.70;;
55435;SDS011;41307;53.142;6.430;2023-08-08T04:31:33;2.33;;;0.70;;
55435;SDS011;41307;53.142;6.430;2023-08-08T04:33:59;1.60;;;0.65;;
55435;SDS011;41307;53.142;6.430;2023-08-08T04:36:26;3.92;;;0.88;;
55435;SDS011;41307;53.142;6.430;2023-08-08T04:38:53;1.00;;;0.85;;
55435;SDS011;41307;53.142;6.430;2023-08-08T04:41:19;1.58;;;0.70;;
55435;SDS011;41307;53.142;6.430;2023-08-08T04:43:44;1.52;;;0.82;;
55435;SDS011;41307;53.142;6.430;2023-08-08T04:46:10;1.45;;;0.70;;
55435;SDS011;41307;53.142;6.430;2023-08-08T04:48:36;1.15;;;0.50;;
55435;SDS011;41307;53.142;6.430;2023-08-08T04:51:06;2.15;;;1.20;;
55435;SDS011;41307;53.142;6.430;2023-08-08T04:53:32;1.90;;;0.82;;
55435;SDS011;41307;53.142;6.430;2023-08-08T04:55:57;1.70;;;0.90;;
55435;SDS011;41307;53.142;6.430;2023-08-08T04:58:23;2.25;;;0.80;;
55435;SDS011;41307;53.142;6.430;2023-08-08T05:00:49;1.42;;;0.70;;
55435;SDS011;41307;53.142;6.430;2023-08-08T05:03:17;1.23;;;0.70;;
55435;SDS011;41307;53.142;6.430;2023-08-08T05:05:43;1.55;;;0.60;;
55435;SDS011;41307;53.142;6.430;2023-08-08T05:08:12;3.63;;;0.70;;
55435;SDS011;41307;53.142;6.430;2023-08-08T05:10:39;0.82;;;0.50;;
55435;SDS011;41307;53.142;6.430;2023-08-08T05:13:04;0.50;;;0.30;;
55435;SDS011;41307;53.142;6.430;2023-08-08T05:15:30;1.33;;;0.65;;
55435;SDS011;41307;53.142;6.430;2023-08-08T05:17:56;0.77;;;0.60;;
55435;SDS011;41307;53.142;6.430;2023-08-08T05:20:22;1.08;;;0.50;;
55435;SDS011;41307;53.142;6.430;2023-08-08T05:22:48;0.95;;;0.50;;
55435;SDS011;41307;53.142;6.430;2023-08-08T05:25:13;2.20;;;0.50;;
55435;SDS011;41307;53.142;6.430;2023-08-08T05:27:39;0.88;;;0.40;;
55435;SDS011;41307;53.142;6.430;2023-08-08T05:30:05;1.20;;;0.55;;
55435;SDS011;41307;53.142;6.430;2023-08-08T05:32:31;1.83;;;0.60;;
55435;SDS011;41307;53.142;6.430;2023-08-08T05:34:57;0.85;;;0.50;;
55435;SDS011;41307;53.142;6.430;2023-08-08T05:37:23;1.75;;;0.65;;
55435;SDS011;41307;53.142;6.430;2023-08-08T05:39:49;2.20;;;0.50;;
55435;SDS011;41307;53.142;6.430;2023-08-08T05:42:15;1.73;;;0.43;;
55435;SDS011;41307;53.142;6.430;2023-08-08T05:44:40;1.38;;;0.20;;
55435;SDS011;41307;53.142;6.430;2023-08-08T05:47:07;1.27;;;0.30;;
55435;SDS011;41307;53.142;6.430;2023-08-08T05:49:32;1.40;;;0.30;;
55435;SDS011;41307;53.142;6.430;2023-08-08T05:51:58;1.02;;;0.30;;
55435;SDS011;41307;53.142;6.430;2023-08-08T05:54:24;1.85;;;0.30;;
55435;SDS011;41307;53.142;6.430;2023-08-08T05:56:50;0.73;;;0.30;;
55435;SDS011;41307;53.142;6.430;2023-08-08T05:59:16;0.32;;;0.20;;
55435;SDS011;41307;53.142;6.430;2023-08-08T06:01:42;0.95;;;0.40;;
55435;SDS011;41307;53.142;6.430;2023-08-08T06:04:09;1.23;;;0.20;;
55435;SDS011;41307;53.142;6.430;2023-08-08T06:06:35;1.73;;;0.30;;
55435;SDS011;41307;53.142;6.430;2023-08-08T06:09:00;1.17;;;0.38;;
55435;SDS011;41307;53.142;6.430;2023-08-08T06:11:26;1.00;;;0.20;;
55435;SDS011;41307;53.142;6.430;2023-08-08T06:13:52;1.50;;;0.20;;
55435;SDS011;41307;53.142;6.430;2023-08-08T06:16:19;1.48;;;0.22;;
55435;SDS011;41307;53.142;6.430;2023-08-08T06:18:45;1.48;;;0.17;;
55435;SDS011;41307;53.142;6.430;2023-08-08T06:21:11;2.38;;;0.30;;
55435;SDS011;41307;53.142;6.430;2023-08-08T06:23:36;1.83;;;0.15;;
55435;SDS011;41307;53.142;6.430;2023-08-08T06:26:02;2.33;;;0.20;;
55435;SDS011;41307;53.142;6.430;2023-08-08T06:28:28;0.70;;;0.25;;
55435;SDS011;41307;53.142;6.430;2023-08-08T06:30:55;1.00;;;0.30;;
55435;SDS011;41307;53.142;6.430;2023-08-08T06:33:22;0.40;;;0.20;;
55435;SDS011;41307;53.142;6.430;2023-08-08T06:35:48;1.20;;;0.40;;
55435;SDS011;41307;53.142;6.430;2023-08-08T06:38:14;0.40;;;0.20;;
55435;SDS011;41307;53.142;6.430;2023-08-08T06:40:40;0.60;;;0.38;;
55435;SDS011;41307;53.142;6.430;2023-08-08T06:43:05;1.20;;;0.20;;
55435;SDS011;41307;53.142;6.430;2023-08-08T06:45:31;1.23;;;0.22;;
55435;SDS011;41307;53.142;6.430;2023-08-08T06:47:57;1.00;;;0.20;;
55435;SDS011;41307;53.142;6.430;2023-08-08T06:50:23;2.40;;;0.38;;
55435;SDS011;41307;53.142;6.430;2023-08-08T06:52:51;1.40;;;0.20;;
55435;SDS011;41307;53.142;6.430;2023-08-08T06:55:17;2.00;;;0.25;;
55435;SDS011;41307;53.142;6.430;2023-08-08T06:57:42;0.93;;;0.30;;
55435;SDS011;41307;53.142;6.430;2023-08-08T07:00:08;2.05;;;0.30;;
55435;SDS011;41307;53.142;6.430;2023-08-08T07:02:37;0.68;;;0.20;;
55435;SDS011;41307;53.142;6.430;2023-08-08T07:05:03;1.45;;;0.22;;
55435;SDS011;41307;53.142;6.430;2023-08-08T07:07:29;2.00;;;0.30;;
55435;SDS011;41307;53.142;6.430;2023-08-08T07:09:56;1.30;;;0.30;;
55435;SDS011;41307;53.142;6.430;2023-08-08T07:12:21;0.98;;;0.20;;
55435;SDS011;41307;53.142;6.430;2023-08-08T07:14:47;0.45;;;0.10;;
55435;SDS011;41307;53.142;6.430;2023-08-08T07:17:13;2.67;;;0.30;;
55435;SDS011;41307;53.142;6.430;2023-08-08T07:19:39;2.80;;;0.20;;
55435;SDS011;41307;53.142;6.430;2023-08-08T07:22:06;0.65;;;0.13;;
55435;SDS011;41307;53.142;6.430;2023-08-08T07:24:32;0.73;;;0.20;;
55435;SDS011;41307;53.142;6.430;2023-08-08T07:26:58;0.73;;;0.17;;
55435;SDS011;41307;53.142;6.430;2023-08-08T07:29:24;1.08;;;0.20;;
55435;SDS011;41307;53.142;6.430;2023-08-08T07:31:53;0.98;;;0.17;;
55435;SDS011;41307;53.142;6.430;2023-08-08T07:34:19;0.20;;;0.10;;
55435;SDS011;41307;53.142;6.430;2023-08-08T07:36:46;1.02;;;0.20;;
55435;SDS011;41307;53.142;6.430;2023-08-08T07:39:12;1.10;;;0.68;;
55435;SDS011;41307;53.142;6.430;2023-08-08T07:41:38;1.55;;;0.10;;
55435;SDS011;41307;53.142;6.430;2023-08-08T07:44:04;1.13;;;0.25;;
55435;SDS011;41307;53.142;6.430;2023-08-08T07:46:30;0.95;;;0.30;;
55435;SDS011;41307;53.142;6.430;2023-08-08T07:48:57;0.52;;;0.15;;
55435;SDS011;41307;53.142;6.430;2023-08-08T07:51:24;0.25;;;0.10;;
55435;SDS011;41307;53.142;6.430;2023-08-08T07:53:50;0.52;;;0.10;;
55435;SDS011;41307;53.142;6.430;2023-08-08T07:56:16;1.65;;;0.20;;
55435;SDS011;41307;53.142;6.430;2023-08-08T07:58:42;0.63;;;0.10;;
55435;SDS011;41307;53.142;6.430;2023-08-08T08:01:07;2.38;;;0.10;;
55435;SDS011;41307;53.142;6.430;2023-08-08T08:03:33;1.13;;;0.20;;
55435;SDS011;41307;53.142;6.430;2023-08-08T08:05:59;0.57;;;0.13;;
55435;SDS011;41307;53.142;6.430;2023-08-08T08:08:24;0.30;;;0.10;;
55435;SDS011;41307;53.142;6.430;2023-08-08T08:10:50;2.05;;;0.30;;
55435;SDS011;41307;53.142;6.430;2023-08-08T08:13:16;3.10;;;0.30;;
55435;SDS011;41307;53.142;6.430;2023-08-08T08:15:43;0.60;;;0.20;;
55435;SDS011;41307;53.142;6.430;2023-08-08T08:18:08;0.82;;;0.20;;
55435;SDS011;41307;53.142;6.430;2023-08-08T08:20:36;0.60;;;0.20;;
55435;SDS011;41307;53.142;6.430;2023-08-08T08:23:02;1.60;;;0.28;;
55435;SDS011;41307;53.142;6.430;2023-08-08T08:25:27;0.50;;;0.20;;
55435;SDS011;41307;53.142;6.430;2023-08-08T08:27:53;0.65;;;0.10;;
55435;SDS011;41307;53.142;6.430;2023-08-08T08:30:19;1.15;;;0.20;;
55435;SDS011;41307;53.142;6.430;2023-08-08T08:32:45;0.70;;;0.15;;
55435;SDS011;41307;53.142;6.430;2023-08-08T08:35:10;1.27;;;0.40;;
55435;SDS011;41307;53.142;6.430;2023-08-08T08:37:38;0.38;;;0.20;;
55435;SDS011;41307;53.142;6.430;2023-08-08T08:40:04;0.03;;;0.00;;
55435;SDS011;41307;53.142;6.430;2023-08-08T08:42:30;0.60;;;0.20;;
55435;SDS011;41307;53.142;6.430;2023-08-08T08:44:58;0.52;;;0.20;;
55435;SDS011;41307;53.142;6.430;2023-08-08T08:47:25;1.85;;;0.20;;
55435;SDS011;41307;53.142;6.430;2023-08-08T08:49:54;0.45;;;0.20;;
55435;SDS011;41307;53.142;6.430;2023-08-08T08:52:21;1.60;;;0.22;;
55435;SDS011;41307;53.142;6.430;2023-08-08T08:54:47;1.05;;;0.30;;
55435;SDS011;41307;53.142;6.430;2023-08-08T08:57:14;0.85;;;0.20;;
55435;SDS011;41307;53.142;6.430;2023-08-08T08:59:40;0.52;;;0.20;;
55435;SDS011;41307;53.142;6.430;2023-08-08T09:02:06;0.40;;;0.15;;
55435;SDS011;41307;53.142;6.430;2023-08-08T09:04:33;2.63;;;0.45;;
55435;SDS011;41307;53.142;6.430;2023-08-08T09:07:00;1.00;;;0.20;;
55435;SDS011;41307;53.142;6.430;2023-08-08T09:09:26;1.15;;;0.10;;
55435;SDS011;41307;53.142;6.430;2023-08-08T09:11:56;1.00;;;0.28;;
55435;SDS011;41307;53.142;6.430;2023-08-08T09:14:22;0.57;;;0.10;;
55435;SDS011;41307;53.142;6.430;2023-08-08T09:16:50;1.92;;;0.30;;
55435;SDS011;41307;53.142;6.430;2023-08-08T09:19:18;1.95;;;0.22;;
55435;SDS011;41307;53.142;6.430;2023-08-08T09:21:44;1.65;;;0.35;;
55435;SDS011;41307;53.142;6.430;2023-08-08T09:24:10;1.52;;;0.30;;
55435;SDS011;41307;53.142;6.430;2023-08-08T09:26:36;1.80;;;0.32;;
55435;SDS011;41307;53.142;6.430;2023-08-08T09:29:02;0.77;;;0.25;;
55435;SDS011;41307;53.142;6.430;2023-08-08T09:31:28;0.65;;;0.20;;
55435;SDS011;41307;53.142;6.430;2023-08-08T09:33:58;0.35;;;0.10;;
55435;SDS011;41307;53.142;6.430;2023-08-08T09:36:25;0.82;;;0.20;;
55435;SDS011;41307;53.142;6.430;2023-08-08T09:38:52;1.77;;;0.30;;
55435;SDS011;41307;53.142;6.430;2023-08-08T09:41:19;0.30;;;0.15;;
55435;SDS011;41307;53.142;6.430;2023-08-08T09:43:47;1.05;;;0.10;;
55435;SDS011;41307;53.142;6.430;2023-08-08T09:46:13;0.40;;;0.17;;
55435;SDS011;41307;53.142;6.430;2023-08-08T09:48:40;1.73;;;0.30;;
55435;SDS011;41307;53.142;6.430;2023-08-08T09:51:07;0.30;;;0.13;;
55435;SDS011;41307;53.142;6.430;2023-08-08T09:53:34;0.60;;;0.30;;
55435;SDS011;41307;53.142;6.430;2023-08-08T09:56:04;2.00;;;0.20;;
55435;SDS011;41307;53.142;6.430;2023-08-08T09:58:30;0.20;;;0.10;;
55435;SDS011;41307;53.142;6.430;2023-08-08T10:00:56;0.52;;;0.20;;
55435;SDS011;41307;53.142;6.430;2023-08-08T10:03:25;1.23;;;0.20;;
55435;SDS011;41307;53.142;6.430;2023-08-08T10:05:51;0.98;;;0.20;;
55435;SDS011;41307;53.142;6.430;2023-08-08T10:08:18;1.27;;;0.30;;
55435;SDS011;41307;53.142;6.430;2023-08-08T10:10:45;0.82;;;0.20;;
55435;SDS011;41307;53.142;6.430;2023-08-08T10:13:19;0.50;;;0.20;;
55435;SDS011;41307;53.142;6.430;2023-08-08T10:15:46;0.17;;;0.10;;
55435;SDS011;41307;53.142;6.430;2023-08-08T10:18:12;1.30;;;0.30;;
55435;SDS011;41307;53.142;6.430;2023-08-08T10:20:38;3.20;;;0.28;;
55435;SDS011;41307;53.142;6.430;2023-08-08T10:23:07;0.90;;;0.22;;
55435;SDS011;41307;53.142;6.430;2023-08-08T10:25:32;2.47;;;0.30;;
55435;SDS011;41307;53.142;6.430;2023-08-08T10:33:20;0.60;;;0.25;;
55435;SDS011;41307;53.142;6.430;2023-08-08T10:35:53;0.82;;;0.20;;
55435;SDS011;41307;53.142;6.430;2023-08-08T10:41:26;0.77;;;0.25;;
55435;SDS011;41307;53.142;6.430;2023-08-08T10:43:56;0.38;;;0.17;;
55435;SDS011;41307;53.142;6.430;2023-08-08T10:46:32;4.18;;;0.25;;
55435;SDS011;41307;53.142;6.430;2023-08-08T10:48:59;1.45;;;0.17;;
55435;SDS011;41307;53.142;6.430;2023-08-08T10:51:36;0.85;;;0.20;;
55435;SDS011;41307;53.142;6.430;2023-08-08T10:54:19;1.08;;;0.20;;
55435;SDS011;41307;53.142;6.430;2023-08-08T10:56:56;0.90;;;0.25;;
55435;SDS011;41307;53.142;6.430;2023-08-08T10:59:26;0.65;;;0.20;;
55435;SDS011;41307;53.142;6.430;2023-08-08T11:02:01;1.50;;;0.20;;
55435;SDS011;41307;53.142;6.430;2023-08-08T11:04:28;0.82;;;0.20;;
55435;SDS011;41307;53.142;6.430;2023-08-08T11:06:55;1.50;;;0.20;;
55435;SDS011;41307;53.142;6.430;2023-08-08T11:09:22;1.15;;;0.25;;
55435;SDS011;41307;53.142;6.430;2023-08-08T11:11:48;0.52;;;0.15;;
55435;SDS011;41307;53.142;6.430;2023-08-08T11:14:15;1.17;;;0.30;;
55435;SDS011;41307;53.142;6.430;2023-08-08T11:16:42;1.02;;;0.22;;
55435;SDS011;41307;53.142;6.430;2023-08-08T11:19:10;0.70;;;0.20;;
55435;SDS011;41307;53.142;6.430;2023-08-08T11:21:39;0.43;;;0.10;;
55435;SDS011;41307;53.142;6.430;2023-08-08T11:24:06;1.98;;;0.30;;
55435;SDS011;41307;53.142;6.430;2023-08-08T11:26:33;1.00;;;0.30;;
55435;SDS011;41307;53.142;6.430;2023-08-08T11:29:01;1.92;;;0.25;;
55435;SDS011;41307;53.142;6.430;2023-08-08T11:31:28;2.72;;;0.50;;
55435;SDS011;41307;53.142;6.430;2023-08-08T11:33:54;1.38;;;0.28;;
55435;SDS011;41307;53.142;6.430;2023-08-08T11:36:20;2.78;;;0.57;;
55435;SDS011;41307;53.142;6.430;2023-08-08T11:38:47;0.73;;;0.22;;
55435;SDS011;41307;53.142;6.430;2023-08-08T11:41:15;1.17;;;0.30;;
55435;SDS011;41307;53.142;6.430;2023-08-08T11:43:41;0.52;;;0.20;;
55435;SDS011;41307;53.142;6.430;2023-08-08T11:46:09;2.10;;;0.20;;
55435;SDS011;41307;53.142;6.430;2023-08-08T11:48:35;0.73;;;0.30;;
55435;SDS011;41307;53.142;6.430;2023-08-08T11:51:03;2.25;;;0.30;;
55435;SDS011;41307;53.142;6.430;2023-08-08T11:53:29;1.40;;;0.20;;
55435;SDS011;41307;53.142;6.430;2023-08-08T11:55:56;1.08;;;0.30;;
55435;SDS011;41307;53.142;6.430;2023-08-08T11:58:26;0.55;;;0.35;;
55435;SDS011;41307;53.142;6.430;2023-08-08T12:00:52;1.27;;;0.38;;
55435;SDS011;41307;53.142;6.430;2023-08-08T12:03:19;0.20;;;0.20;;
55435;SDS011;41307;53.142;6.430;2023-08-08T12:05:45;1.38;;;0.30;;
55435;SDS011;41307;53.142;6.430;2023-08-08T12:08:18;0.75;;;0.15;;
55435;SDS011;41307;53.142;6.430;2023-08-08T12:10:49;0.63;;;0.10;;
55435;SDS011;41307;53.142;6.430;2023-08-08T12:13:20;0.63;;;0.20;;
55435;SDS011;41307;53.142;6.430;2023-08-08T12:15:46;0.60;;;0.30;;
55435;SDS011;41307;53.142;6.430;2023-08-08T12:18:15;0.82;;;0.17;;
55435;SDS011;41307;53.142;6.430;2023-08-08T12:20:43;1.13;;;0.17;;
55435;SDS011;41307;53.142;6.430;2023-08-08T12:23:09;0.90;;;0.20;;
55435;SDS011;41307;53.142;6.430;2023-08-08T12:25:35;1.33;;;0.60;;
55435;SDS011;41307;53.142;6.430;2023-08-08T12:28:02;0.80;;;0.10;;
55435;SDS011;41307;53.142;6.430;2023-08-08T12:30:27;1.05;;;0.38;;
55435;SDS011;41307;53.142;6.430;2023-08-08T12:32:53;0.88;;;0.20;;
55435;SDS011;41307;53.142;6.430;2023-08-08T12:35:19;1.55;;;0.15;;
55435;SDS011;41307;53.142;6.430;2023-08-08T12:37:45;0.47;;;0.17;;
55435;SDS011;41307;53.142;6.430;2023-08-08T12:40:12;0.25;;;0.10;;
55435;SDS011;41307;53.142;6.430;2023-08-08T12:42:37;0.73;;;0.10;;
55435;SDS011;41307;53.142;6.430;2023-08-08T12:45:04;0.93;;;0.20;;
55435;SDS011;41307;53.142;6.430;2023-08-08T12:47:30;1.00;;;0.30;;
55435;SDS011;41307;53.142;6.430;2023-08-08T12:49:56;0.38;;;0.30;;
55435;SDS011;41307;53.142;6.430;2023-08-08T12:52:22;0.80;;;0.10;;
55435;SDS011;41307;53.142;6.430;2023-08-08T12:54:48;3.25;;;0.40;;
55435;SDS011;41307;53.142;6.430;2023-08-08T12:57:14;0.47;;;0.17;;
55435;SDS011;41307;53.142;6.430;2023-08-08T12:59:40;2.70;;;0.30;;
55435;SDS011;41307;53.142;6.430;2023-08-08T13:02:06;0.40;;;0.10;;
55435;SDS011;41307;53.142;6.430;2023-08-08T13:04:32;1.17;;;0.20;;
55435;SDS011;41307;53.142;6.430;2023-08-08T13:06:57;0.98;;;0.20;;
55435;SDS011;41307;53.142;6.430;2023-08-08T13:09:24;0.85;;;0.20;;
55435;SDS011;41307;53.142;6.430;2023-08-08T13:11:49;0.75;;;0.20;;
55435;SDS011;41307;53.142;6.430;2023-08-08T13:14:15;0.68;;;0.22;;
55435;SDS011;41307;53.142;6.430;2023-08-08T13:16:41;0.43;;;0.10;;
55435;SDS011;41307;53.142;6.430;2023-08-08T13:19:07;1.70;;;0.20;;
55435;SDS011;41307;53.142;6.430;2023-08-08T13:21:33;1.40;;;0.30;;
55435;SDS011;41307;53.142;6.430;2023-08-08T13:23:59;0.65;;;0.38;;
55435;SDS011;41307;53.142;6.430;2023-08-08T13:26:24;1.35;;;0.32;;
55435;SDS011;41307;53.142;6.430;2023-08-08T13:28:50;0.55;;;0.10;;
55435;SDS011;41307;53.142;6.430;2023-08-08T13:31:16;0.93;;;0.10;;
55435;SDS011;41307;53.142;6.430;2023-08-08T13:33:42;0.88;;;0.20;;
55435;SDS011;41307;53.142;6.430;2023-08-08T13:36:08;1.27;;;0.32;;
55435;SDS011;41307;53.142;6.430;2023-08-08T13:38:34;1.02;;;0.63;;
55435;SDS011;41307;53.142;6.430;2023-08-08T13:41:00;2.05;;;0.20;;
55435;SDS011;41307;53.142;6.430;2023-08-08T13:43:26;0.65;;;0.10;;
55435;SDS011;41307;53.142;6.430;2023-08-08T13:45:52;2.15;;;0.40;;
55435;SDS011;41307;53.142;6.430;2023-08-08T13:48:18;2.03;;;0.20;;
55435;SDS011;41307;53.142;6.430;2023-08-08T13:50:43;1.75;;;0.28;;
55435;SDS011;41307;53.142;6.430;2023-08-08T13:53:09;1.17;;;0.40;;
55435;SDS011;41307;53.142;6.430;2023-08-08T13:55:35;0.77;;;0.30;;
55435;SDS011;41307;53.142;6.430;2023-08-08T13:58:05;1.65;;;0.10;;
55435;SDS011;41307;53.142;6.430;2023-08-08T14:00:31;1.50;;;0.30;;
55435;SDS011;41307;53.142;6.430;2023-08-08T14:02:57;0.90;;;0.22;;
55435;SDS011;41307;53.142;6.430;2023-08-08T14:05:24;0.93;;;0.20;;
55435;SDS011;41307;53.142;6.430;2023-08-08T14:07:50;0.90;;;0.40;;
55435;SDS011;41307;53.142;6.430;2023-08-08T14:10:15;1.60;;;0.32;;
55435;SDS011;41307;53.142;6.430;2023-08-08T14:12:41;1.65;;;0.25;;
55435;SDS011;41307;53.142;6.430;2023-08-08T14:15:07;0.60;;;0.25;;
55435;SDS011;41307;53.142;6.430;2023-08-08T14:17:34;1.00;;;0.30;;
55435;SDS011;41307;53.142;6.430;2023-08-08T14:20:00;1.45;;;0.28;;
55435;SDS011;41307;53.142;6.430;2023-08-08T14:22:26;0.93;;;0.32;;
55435;SDS011;41307;53.142;6.430;2023-08-08T14:24:51;1.30;;;0.28;;
55435;SDS011;41307;53.142;6.430;2023-08-08T14:27:17;0.52;;;0.10;;
55435;SDS011;41307;53.142;6.430;2023-08-08T14:29:43;1.17;;;0.20;;
55435;SDS011;41307;53.142;6.430;2023-08-08T14:32:09;0.82;;;0.30;;
55435;SDS011;41307;53.142;6.430;2023-08-08T14:34:35;1.23;;;0.15;;
55435;SDS011;41307;53.142;6.430;2023-08-08T14:37:03;0.30;;;0.10;;
55435;SDS011;41307;53.142;6.430;2023-08-08T14:39:29;0.63;;;0.20;;
55435;SDS011;41307;53.142;6.430;2023-08-08T14:41:55;1.23;;;0.20;;
55435;SDS011;41307;53.142;6.430;2023-08-08T14:44:21;1.25;;;0.20;;
55435;SDS011;41307;53.142;6.430;2023-08-08T14:46:47;1.15;;;0.10;;
55435;SDS011;41307;53.142;6.430;2023-08-08T14:49:13;0.32;;;0.13;;
55435;SDS011;41307;53.142;6.430;2023-08-08T14:51:39;3.13;;;0.25;;
55435;SDS011;41307;53.142;6.430;2023-08-08T14:54:04;2.03;;;0.32;;